Stations météo

réclame
Mon MeteoGroup
Coventry/Coundon, Grande-Bretagne (99070): Température de l'air & dewpoint: 16.09.2020 14:00:00 - 22.09.2020 14:00:00 (BST)Coventry/Coundon, Grande-Bretagne (99070): Température de l'air -20cm & Température de l'air -100cm: 16.09.2020 14:00:00 - 22.09.2020 14:00:00 (BST)Coventry/Coundon, Grande-Bretagne (99070): Vitesse du vent: 16.09.2020 14:00:00 - 22.09.2020 14:00:00 (BST)Coventry/Coundon, Grande-Bretagne (99070): Direction du vent: 16.09.2020 14:00:00 - 22.09.2020 14:00:00 (BST)Coventry/Coundon, Grande-Bretagne (99070): Ensoleillement: 16.09.2020 14:00:00 - 22.09.2020 14:00:00 (BST)Coventry/Coundon, Grande-Bretagne (99070): Quantités de précipitations: 16.09.2020 14:00:00 - 22.09.2020 14:00:00 (BST)
Date & Time tt [°C] td [°C] tt -20cm [°C] tt -100cm [°C] ff [km/h] ff [knt] dd sd [min] rr [mm]
22.09.2020 14:00:00 24,1 7,3 - - 9 5 SSW 60 -
22.09.2020 13:00:00 22,7 11,8 - - 9 5 S 60 0,0
22.09.2020 12:00:00 21,6 12,8 - - 9 5 SSW 60 0,0
22.09.2020 11:00:00 19,9 14,4 - - 8 4 S 60 0,0
22.09.2020 10:00:00 17,4 14,0 15,7 15,7 5 3 SSW 60 0,0
22.09.2020 09:00:00 13,8 13,5 - - 2 1 WSW 60 0,0
22.09.2020 08:00:00 11,8 11,7 - - 2 1 SW 6 0,0
22.09.2020 07:00:00 10,7 10,4 - - 2 1 S 0 0,0
22.09.2020 06:00:00 11,3 11,1 - - 4 2 W 0 0,0
22.09.2020 05:00:00 11,7 11,3 - - 4 2 WSW 0 0,0
22.09.2020 04:00:00 12,1 11,5 - - 2 1 SSW 0 0,0
22.09.2020 03:00:00 12,6 12,2 - - 5 3 WSW 0 0,0
22.09.2020 02:00:00 12,7 12,1 - - 2 1 SW 0 0,0
22.09.2020 01:00:00 13,0 12,2 - - 4 2 W - 0,0
22.09.2020 00:00:00 13,6 12,7 - - 2 1 SSE 0 0,0
21.09.2020 23:00:00 14,8 12,6 - - 4 2 W 0 0,0
21.09.2020 22:00:00 15,7 13,5 - - 4 2 W 0 0,0
21.09.2020 21:00:00 16,3 13,5 - - 4 2 WSW 0 0,0
21.09.2020 20:00:00 18,2 13,7 - - 2 1 WSW 0 0,0
21.09.2020 19:00:00 20,4 13,9 - - 5 3 SSW 18 0,0
21.09.2020 18:00:00 22,3 14,4 - - 5 3 SW 60 0,0
21.09.2020 17:00:00 23,4 13,7 - - 4 2 W 60 0,0
21.09.2020 16:00:00 23,2 12,9 - - 5 3 WNW 60 0,0
21.09.2020 15:00:00 22,5 13,2 - - 4 2 S 60 0,0
21.09.2020 14:00:00 21,6 13,5 - - 4 2 ESE 60 0,0
21.09.2020 13:00:00 19,6 12,9 - - 2 1 W 60 0,0
21.09.2020 12:00:00 17,4 12,3 - - 4 2 WSW 60 -
21.09.2020 11:00:00 16,3 12,3 - - 4 2 SW 60 0,0
21.09.2020 10:00:00 14,2 11,8 - - 4 2 S 60 0,0
21.09.2020 09:00:00 11,5 11,4 - - 2 1 W 54 0,0
21.09.2020 08:00:00 9,3 9,3 - - 2 1 NW 0 0,0
21.09.2020 07:00:00 8,0 7,7 - - 4 2 W 0 0,0
21.09.2020 06:00:00 8,7 8,3 - - 2 1 N 0 0,0
21.09.2020 05:00:00 9,2 8,5 - - 4 2 NE 0 0,0
21.09.2020 04:00:00 9,6 8,7 - - 4 2 NNE 0 0,0
21.09.2020 03:00:00 10,1 9,2 - - 5 3 NE 0 0,0
21.09.2020 02:00:00 10,7 9,7 - - 5 3 NE 0 0,0
21.09.2020 01:00:00 10,7 9,3 - - 8 4 NE - 0,0
21.09.2020 00:00:00 11,6 9,8 - - 8 4 NNE 0 0,0
20.09.2020 23:00:00 12,1 10,4 - - 9 5 NE 0 0,0
20.09.2020 22:00:00 12,8 10,6 - - 9 5 ENE 0 0,0
20.09.2020 21:00:00 13,6 10,7 - - 9 5 ENE 0 0,0
20.09.2020 20:00:00 14,9 10,7 - - 11 6 ENE 0 0,0
20.09.2020 19:00:00 16,4 10,7 - - 13 7 ENE 24 0,0
20.09.2020 18:00:00 18,0 10,3 - - 15 8 ENE 60 0,0
20.09.2020 17:00:00 18,9 10,8 - - 15 8 ENE 60 0,0
20.09.2020 16:00:00 19,2 10,8 - - 16 9 NE 60 0,0
20.09.2020 15:00:00 19,3 11,1 - - 16 9 ENE 60 -
20.09.2020 14:00:00 18,3 10,8 - - 16 9 NE 60 0,0
20.09.2020 13:00:00 17,7 11,3 - - 16 9 NE 54 0,0
20.09.2020 12:00:00 16,7 11,4 - - 15 8 NE 24 0,0
20.09.2020 11:00:00 15,6 11,6 - - 16 9 ENE 6 0,0
20.09.2020 10:00:00 14,4 11,5 - - 13 7 ENE 0 0,0
20.09.2020 09:00:00 13,4 11,5 - - 16 9 NE 12 -
20.09.2020 08:00:00 12,6 11,3 - - 15 8 NE 0 0,0
20.09.2020 07:00:00 12,6 11,0 - - 16 9 NE 0 0,0
20.09.2020 06:00:00 12,9 11,0 - - 13 7 NE 0 0,0
20.09.2020 05:00:00 12,9 11,0 - - 13 7 NE 0 0,0
20.09.2020 04:00:00 13,0 11,0 - - 13 7 NE 0 0,0
20.09.2020 03:00:00 12,9 11,1 - - 15 8 NE 0 0,0
20.09.2020 02:00:00 13,0 11,2 - - 16 9 NE 0 0,0
20.09.2020 01:00:00 12,8 11,0 - - 18 10 NE - 0,0
20.09.2020 00:00:00 13,3 10,9 - - 15 8 NE 0 0,0
19.09.2020 23:00:00 13,7 10,9 - - 16 9 ENE 0 -
19.09.2020 22:00:00 13,8 10,9 - - 16 9 ENE 0 0,0
19.09.2020 21:00:00 14,1 11,3 - - 21 11 NE 0 0,0
19.09.2020 20:00:00 14,9 10,8 - - 15 8 NE 0 0,0
19.09.2020 19:00:00 16,3 10,7 - - 22 12 NE 30 0,0
19.09.2020 18:00:00 17,9 10,6 - - 24 13 ENE 60 0,0
19.09.2020 17:00:00 18,9 10,1 - - 24 13 ENE 60 0,0
19.09.2020 16:00:00 19,5 9,8 - - 24 13 ENE 60 0,0
19.09.2020 15:00:00 19,9 9,1 - - 26 14 ENE 60 0,0
19.09.2020 14:00:00 20,1 10,2 - - 21 11 ENE 60 0,0
19.09.2020 13:00:00 19,6 11,3 - - 21 11 ENE 60 0,0
19.09.2020 12:00:00 18,1 11,6 - - 24 13 ENE 60 0,0
19.09.2020 11:00:00 16,4 12,5 - - 22 12 NE 54 0,0
19.09.2020 10:00:00 14,7 12,3 15,9 15,9 21 11 NE 6 0,0
19.09.2020 09:00:00 13,5 11,8 - - 18 10 NE 0 0,0
19.09.2020 08:00:00 12,7 11,5 - - 18 10 NE 0 0,0
19.09.2020 07:00:00 12,3 11,2 - - 21 11 NE 0 0,0
19.09.2020 06:00:00 11,9 10,9 - - 16 9 NE 0 0,0
19.09.2020 05:00:00 11,9 10,9 - - 21 11 NE 0 0,0
19.09.2020 04:00:00 11,0 10,0 - - 18 10 NE 0 -
19.09.2020 03:00:00 11,1 10,0 - - 16 9 NE 0 0,0
19.09.2020 02:00:00 10,9 9,5 - - 16 9 NE 0 0,0
19.09.2020 01:00:00 11,0 9,2 - - 16 9 NE - 0,0
19.09.2020 00:00:00 11,2 9,0 - - 13 7 NE 0 0,0
18.09.2020 23:00:00 11,8 9,1 - - 15 8 NE 0 0,0
18.09.2020 22:00:00 12,3 9,0 - - 18 10 NE 0 0,0
18.09.2020 21:00:00 12,8 8,8 - - 15 8 ENE 0 -
18.09.2020 20:00:00 13,4 8,3 - - 21 11 ENE 0 0,0
18.09.2020 19:00:00 14,9 8,4 - - 21 11 NE 6 0,0
18.09.2020 18:00:00 16,5 8,2 - - 21 11 ENE 54 0,0
18.09.2020 17:00:00 18,1 9,0 - - 22 12 NE 60 0,0
18.09.2020 16:00:00 18,9 9,2 - - 21 11 ENE 60 0,0
18.09.2020 15:00:00 18,9 8,6 - - 21 11 ENE 60 0,0
18.09.2020 14:00:00 18,6 9,5 - - 21 11 E 60 0,0
18.09.2020 13:00:00 17,5 8,1 - - 21 11 E 60 0,0
18.09.2020 12:00:00 16,9 9,9 - - 21 11 ENE 60 0,0
18.09.2020 11:00:00 15,6 9,3 - - 22 12 E 54 0,0
18.09.2020 10:00:00 13,1 8,8 16,0 15,9 21 11 ENE 54 0,0
18.09.2020 09:00:00 11,9 9,0 - - 15 8 NE 18 0,0
18.09.2020 08:00:00 9,9 8,2 - - 11 6 NE 0 0,0
18.09.2020 07:00:00 9,1 7,6 - - 13 7 NE 0 0,0
18.09.2020 06:00:00 9,1 7,8 - - 11 6 NE 0 0,0
18.09.2020 05:00:00 8,7 7,4 - - 8 4 NE 0 0,0
18.09.2020 04:00:00 9,5 7,8 - - 9 5 NE 0 0,0
18.09.2020 03:00:00 10,1 8,3 - - 9 5 NE 0 -
18.09.2020 02:00:00 10,0 8,0 - - 8 4 NE 0 0,0
18.09.2020 01:00:00 10,6 8,5 - - 9 5 ENE - 0,0
18.09.2020 00:00:00 11,2 8,7 - - 13 7 ENE 0 0,0
17.09.2020 23:00:00 11,5 8,7 - - 11 6 E 0 0,0
17.09.2020 22:00:00 12,4 9,1 - - 13 7 ENE 0 0,0
17.09.2020 21:00:00 13,4 8,8 - - 15 8 ENE 0 0,0
17.09.2020 20:00:00 15,0 8,6 - - 16 9 ENE 0 0,0
17.09.2020 19:00:00 16,9 11,1 - - 16 9 ENE 36 0,0
17.09.2020 18:00:00 18,6 9,5 - - 15 8 E 60 -
17.09.2020 17:00:00 19,0 9,8 - - 15 8 E 60 -
17.09.2020 16:00:00 19,2 10,3 - - 15 8 ENE 60 0,0
17.09.2020 15:00:00 18,6 9,9 - - 16 9 E 60 0,0
17.09.2020 14:00:00 18,1 9,9 - - 13 7 E 60 0,0
17.09.2020 13:00:00 17,2 10,4 - - 15 8 E 60 0,0
17.09.2020 12:00:00 16,0 10,2 - - 18 10 ENE 60 0,0
17.09.2020 11:00:00 14,4 10,1 - - 15 8 E 18 0,0
17.09.2020 10:00:00 13,7 10,0 16,7 15,7 15 8 E 54 0,0
17.09.2020 09:00:00 12,5 9,8 - - 13 7 ENE 60 0,0
17.09.2020 08:00:00 11,3 9,6 - - 11 6 ENE 18 0,0
17.09.2020 07:00:00 10,7 9,1 - - 9 5 ENE 0 0,0
17.09.2020 06:00:00 11,0 9,4 - - 13 7 ENE 0 0,0
17.09.2020 05:00:00 11,7 9,7 - - 11 6 ENE 0 0,0
17.09.2020 04:00:00 11,7 9,6 - - 9 5 NE 0 0,0
17.09.2020 03:00:00 12,2 9,4 - - 13 7 ENE 0 0,0
17.09.2020 02:00:00 12,7 9,5 - - 16 9 ENE 0 0,0
17.09.2020 01:00:00 12,8 9,7 - - 15 8 ENE - 0,0
17.09.2020 00:00:00 13,0 10,0 - - 16 9 ENE 0 0,0
16.09.2020 23:00:00 13,6 11,0 - - 15 8 ENE 0 0,0
16.09.2020 22:00:00 14,1 11,3 - - 13 7 ENE 0 0,0
16.09.2020 21:00:00 14,4 11,4 - - 16 9 ENE 0 0,0
16.09.2020 20:00:00 14,8 12,3 - - 15 8 ENE 0 0,0
16.09.2020 19:00:00 15,2 12,7 - - 21 11 NE 0 0,0
16.09.2020 18:00:00 15,7 13,6 - - 18 10 NE 0 0,0
16.09.2020 17:00:00 16,4 14,0 - - 21 11 NE 0 0,0
16.09.2020 16:00:00 17,7 14,4 - - 18 10 NNE 0 0,0
16.09.2020 15:00:00 18,9 14,8 - - 21 11 NNE 36 0,0
16.09.2020 14:00:00 20,1 15,2 - - 15 8 ENE 18 0,0

tt = Température de l'air
td = dewpoint
tt -20cm = Température de l'air -20cm
tt -100cm = Température de l'air -100cm
ff = Vitesse du vent
dd = Direction du vent
sd = Ensoleillement
rr = Quantités de précipitations

stations d'obs. à proximité